createdAt,value
2018-11-21T00:02:34.434Z,16.48
2018-11-21T00:05:22.523Z,16.45
2018-11-21T00:07:51.911Z,16.43
2018-11-21T00:10:41.742Z,16.43
2018-11-21T00:13:23.144Z,16.39
2018-11-21T00:16:13.806Z,16.38
2018-11-21T00:18:43.366Z,16.33
2018-11-21T00:21:12.407Z,16.35
2018-11-21T00:23:41.463Z,16.32
2018-11-21T00:26:10.763Z,16.26
2018-11-21T00:28:58.765Z,16.27
2018-11-21T00:31:39.697Z,16.26
2018-11-21T00:34:28.148Z,16.24
2018-11-21T00:37:16.607Z,16.24
2018-11-21T00:40:04.783Z,16.24
2018-11-21T00:42:53.133Z,16.23
2018-11-21T00:45:22.190Z,16.25
2018-11-21T00:48:10.133Z,16.23
2018-11-21T00:50:58.094Z,16.18
2018-11-21T00:53:27.226Z,16.14
2018-11-21T00:56:15.493Z,16.20
2018-11-21T00:58:44.636Z,16.18
2018-11-21T01:01:32.932Z,16.13
2018-11-21T01:04:02.070Z,16.09
2018-11-21T01:06:31.170Z,16.11
2018-11-21T01:09:19.373Z,16.11
2018-11-21T01:12:07.780Z,16.06
2018-11-21T01:14:56.167Z,16.05
2018-11-21T01:17:25.201Z,16.07
2018-11-21T01:19:54.271Z,16.05
2018-11-21T01:22:23.330Z,16.05
2018-11-21T01:25:11.329Z,16.07
2018-11-21T01:27:40.305Z,16.05
2018-11-21T01:30:28.779Z,16.07
2018-11-21T01:33:09.697Z,16.04
2018-11-21T01:35:38.638Z,16.03
2018-11-21T01:38:07.742Z,15.99
2018-11-21T01:40:36.772Z,15.99
2018-11-21T01:43:06.213Z,16.02
2018-11-21T01:45:35.378Z,15.97
2018-11-21T01:48:04.524Z,15.92
2018-11-21T01:50:33.570Z,15.92
2018-11-21T01:53:21.794Z,15.94
2018-11-21T01:56:10.102Z,15.98
2018-11-21T01:58:51.180Z,15.97
2018-11-21T02:01:20.256Z,15.97
2018-11-21T02:04:09.662Z,15.96
2018-11-21T02:06:58.006Z,15.95
2018-11-21T02:09:27.076Z,15.97
2018-11-21T02:11:56.153Z,15.93
2018-11-21T02:14:44.479Z,15.91
2018-11-21T02:17:32.754Z,15.93
2018-11-21T02:20:01.900Z,15.92
2018-11-21T02:22:30.994Z,15.90
2018-11-21T02:25:00.003Z,15.87
2018-11-21T02:27:48.256Z,15.89
2018-11-21T02:30:20.041Z,15.91
2018-11-21T02:33:08.289Z,15.93
2018-11-21T02:35:56.612Z,15.95
2018-11-21T02:38:37.881Z,15.91
2018-11-21T02:41:07.034Z,15.91
2018-11-21T02:43:36.706Z,15.92
2018-11-21T02:46:06.357Z,15.90
2018-11-21T02:48:56.506Z,15.86
2018-11-21T02:51:25.582Z,15.90
2018-11-21T02:54:13.971Z,15.91
2018-11-21T02:57:22.917Z,15.94
2018-11-21T02:59:57.256Z,15.90
2018-11-21T03:02:45.214Z,15.86
2018-11-21T03:05:33.992Z,15.87
2018-11-21T03:08:03.126Z,15.87
2018-11-21T03:13:28.880Z,15.89
2018-11-21T03:15:57.956Z,15.86
2018-11-21T03:18:27.051Z,15.87
2018-11-21T03:20:56.787Z,15.87
2018-11-21T03:23:25.823Z,15.83
2018-11-21T03:26:14.083Z,15.83
2018-11-21T03:31:23.757Z,15.83
2018-11-21T03:34:12.100Z,15.81
2018-11-21T03:36:48.260Z,15.78
2018-11-21T03:39:36.579Z,15.78
2018-11-21T03:42:06.389Z,15.83
2018-11-21T03:44:54.346Z,15.80
2018-11-21T03:47:23.580Z,15.82
2018-11-21T03:49:52.911Z,15.78
2018-11-21T03:52:41.160Z,15.80
2018-11-21T03:55:29.587Z,15.79
2018-11-21T03:57:59.016Z,15.83
2018-11-21T04:00:28.094Z,15.80
2018-11-21T04:02:57.402Z,15.74
2018-11-21T04:05:45.662Z,15.77
2018-11-21T04:08:14.851Z,15.77
2018-11-21T04:10:43.937Z,15.78
2018-11-21T04:13:32.247Z,15.74
2018-11-21T04:16:01.551Z,15.79
2018-11-21T04:18:53.801Z,15.80
2018-11-21T04:21:22.926Z,15.80
2018-11-21T04:24:10.847Z,15.80
2018-11-21T04:26:39.987Z,15.79
2018-11-21T04:29:28.042Z,15.82
2018-11-21T04:31:57.247Z,15.82
2018-11-21T04:34:26.233Z,15.78
2018-11-21T04:37:14.605Z,15.73
2018-11-21T04:39:43.657Z,15.73
2018-11-21T04:42:31.787Z,15.74
2018-11-21T04:45:20.118Z,15.78
2018-11-21T04:47:49.391Z,15.75
2018-11-21T04:50:18.553Z,15.70
2018-11-21T04:53:07.548Z,15.77
2018-11-21T04:55:36.934Z,15.75
2018-11-21T04:58:06.453Z,15.76
2018-11-21T05:00:35.542Z,15.74
2018-11-21T05:03:23.806Z,15.74
2018-11-21T05:06:14.228Z,15.71
2018-11-21T05:08:45.893Z,15.69
2018-11-21T05:11:34.209Z,15.68
2018-11-21T05:14:22.728Z,15.63
2018-11-21T05:16:52.101Z,15.61
2018-11-21T05:19:21.215Z,15.58
2018-11-21T05:24:14.856Z,15.64
2018-11-21T05:27:03.258Z,15.62
2018-11-21T05:29:51.646Z,15.60
2018-11-21T05:32:20.785Z,15.62
2018-11-21T05:34:49.890Z,15.57
2018-11-21T05:37:38.330Z,15.49
2018-11-21T05:40:28.839Z,15.46
2018-11-21T05:42:58.042Z,15.48
2018-11-21T05:45:46.444Z,15.51
2018-11-21T05:48:34.935Z,15.53
2018-11-21T05:51:04.096Z,15.55
2018-11-21T05:53:36.330Z,15.57
2018-11-21T05:56:05.805Z,15.64
2018-11-21T05:58:54.526Z,15.66
2018-11-21T06:04:18.263Z,15.75
2018-11-21T06:06:47.362Z,15.81
2018-11-21T06:09:16.426Z,15.83
2018-11-21T06:12:04.822Z,15.85
2018-11-21T06:14:53.198Z,15.87
2018-11-21T06:17:22.422Z,15.91
2018-11-21T06:20:10.417Z,15.92
2018-11-21T06:22:58.797Z,15.97
2018-11-21T06:25:46.787Z,16.03
2018-11-21T06:31:10.167Z,16.07
2018-11-21T06:33:58.647Z,16.09
2018-11-21T06:36:40.096Z,16.14
2018-11-21T06:39:09.329Z,16.15
2018-11-21T06:41:38.618Z,16.22
2018-11-21T06:44:07.808Z,16.20
2018-11-21T06:46:56.094Z,16.21
2018-11-21T06:49:25.308Z,16.25
2018-11-21T06:52:13.312Z,16.29
2018-11-21T06:55:01.823Z,16.36
2018-11-21T06:57:30.978Z,16.35
2018-11-21T07:00:00.292Z,16.39
2018-11-21T07:02:30.086Z,16.39
2018-11-21T07:04:59.464Z,16.40
2018-11-21T07:07:48.169Z,16.40
2018-11-21T07:10:36.676Z,16.46
2018-11-21T07:13:24.828Z,16.45
2018-11-21T07:16:13.094Z,16.45
2018-11-21T07:18:42.361Z,16.53
2018-11-21T07:21:11.462Z,16.50
2018-11-21T07:24:01.414Z,16.50
2018-11-21T07:26:49.871Z,16.51
2018-11-21T07:29:38.591Z,16.53
2018-11-21T07:32:26.696Z,16.55
2018-11-21T07:34:56.140Z,16.57
2018-11-21T07:37:25.250Z,16.60
2018-11-21T07:40:14.705Z,16.66
2018-11-21T07:43:03.084Z,16.59
2018-11-21T07:48:30.383Z,16.62
2018-11-21T07:51:02.453Z,16.65
2018-11-21T07:53:47.892Z,16.69
2018-11-21T07:56:55.503Z,16.73
2018-11-21T07:59:43.963Z,16.75
2018-11-21T08:02:16.704Z,16.71
2018-11-21T08:05:04.674Z,16.73
2018-11-21T08:08:12.004Z,16.70
2018-11-21T08:11:12.247Z,16.72
2018-11-21T08:13:58.639Z,16.73
2018-11-21T08:16:46.575Z,16.78
2018-11-21T08:19:34.554Z,16.82
2018-11-21T08:25:03.928Z,16.83
2018-11-21T08:27:51.953Z,16.86
2018-11-21T08:32:55.821Z,16.94
2018-11-21T08:35:44.364Z,16.92
2018-11-21T08:38:13.386Z,16.94
2018-11-21T08:41:01.698Z,16.94
2018-11-21T08:43:30.889Z,16.94
2018-11-21T08:46:00.005Z,17.04
2018-11-21T08:48:48.225Z,17.10
2018-11-21T08:51:17.385Z,17.15
2018-11-21T08:53:46.563Z,17.08
2018-11-21T08:56:15.725Z,17.13
2018-11-21T09:01:38.603Z,17.15
2018-11-21T09:04:07.881Z,17.19
2018-11-21T09:06:36.930Z,17.30
2018-11-21T09:09:27.232Z,17.32
2018-11-21T09:12:15.690Z,17.38
2018-11-21T09:15:05.077Z,17.49
2018-11-21T09:17:34.301Z,17.51
2018-11-21T09:20:22.290Z,17.49
2018-11-21T09:22:51.602Z,17.51
2018-11-21T09:25:39.944Z,17.52
2018-11-21T09:28:10.050Z,17.54
2018-11-21T09:30:41.081Z,17.50
2018-11-21T09:33:30.990Z,17.49
2018-11-21T09:35:58.866Z,17.53
2018-11-21T09:38:27.989Z,17.45
2018-11-21T09:41:16.255Z,17.46
2018-11-21T09:43:57.848Z,17.40
2018-11-21T09:46:27.799Z,17.43
2018-11-21T09:48:57.918Z,17.39
2018-11-21T09:51:27.217Z,17.35
2018-11-21T09:54:16.091Z,17.37
2018-11-21T09:56:45.310Z,17.35
2018-11-21T09:59:14.493Z,17.34
2018-11-21T10:02:23.213Z,17.28
2018-11-21T10:04:52.394Z,17.29
2018-11-21T10:07:21.552Z,17.22
2018-11-21T10:10:09.938Z,17.21
2018-11-21T10:12:39.088Z,17.24
2018-11-21T10:15:09.134Z,17.22
2018-11-21T10:17:38.404Z,17.18
2018-11-21T10:20:07.925Z,17.17
2018-11-21T10:22:36.948Z,17.17
2018-11-21T10:25:06.058Z,17.16
2018-11-21T10:27:35.218Z,17.14
2018-11-21T10:30:04.320Z,17.13
2018-11-21T10:32:33.508Z,17.14
2018-11-21T10:35:08.870Z,17.11
2018-11-21T10:37:32.013Z,17.07
2018-11-21T10:40:04.546Z,17.06
2018-11-21T10:42:33.674Z,17.08
2018-11-21T10:45:03.180Z,17.07
2018-11-21T10:47:32.685Z,17.07
2018-11-21T10:50:20.976Z,17.03
2018-11-21T10:53:09.488Z,17.13
2018-11-21T10:55:38.734Z,17.14
2018-11-21T10:58:26.715Z,17.16
2018-11-21T11:01:17.193Z,17.18
2018-11-21T11:03:51.703Z,17.17
2018-11-21T11:06:39.588Z,17.17
2018-11-21T11:09:46.933Z,17.21
2018-11-21T11:12:35.122Z,17.20
2018-11-21T11:15:42.375Z,17.19
2018-11-21T11:18:30.449Z,17.18
2018-11-21T11:21:21.748Z,17.19
2018-11-21T11:24:09.893Z,17.18
2018-11-21T11:27:17.198Z,17.17
2018-11-21T11:30:05.144Z,17.19
2018-11-21T11:32:53.150Z,17.19
2018-11-21T11:35:43.085Z,17.18
2018-11-21T11:38:31.153Z,17.21
2018-11-21T11:41:19.184Z,17.23
2018-11-21T11:44:22.807Z,17.20
2018-11-21T11:47:21.024Z,17.20
2018-11-21T11:50:09.043Z,17.19
2018-11-21T11:52:48.509Z,17.16
2018-11-21T11:55:36.753Z,17.15
2018-11-21T11:58:24.714Z,17.13
2018-11-21T12:01:31.990Z,17.16
2018-11-21T12:04:20.109Z,17.13
2018-11-21T12:07:27.425Z,17.11
2018-11-21T12:10:34.640Z,17.08
2018-11-21T12:13:22.946Z,17.08
2018-11-21T12:16:30.258Z,17.09
2018-11-21T12:19:18.362Z,17.09
2018-11-21T12:21:58.609Z,17.09
2018-11-21T12:24:46.490Z,17.05
2018-11-21T12:30:17.247Z,17.15
2018-11-21T12:33:03.811Z,17.15
2018-11-21T12:36:10.967Z,17.22
2018-11-21T12:39:01.590Z,17.20
2018-11-21T12:41:49.753Z,17.10
2018-11-21T12:44:37.743Z,17.15
2018-11-21T12:47:41.321Z,17.14
2018-11-21T12:50:34.861Z,17.18
2018-11-21T12:53:19.524Z,17.14
2018-11-21T12:56:07.563Z,17.14
2018-11-21T12:59:05.003Z,17.15
2018-11-21T13:01:52.967Z,17.21
2018-11-21T13:04:41.005Z,17.19
2018-11-21T13:07:29.085Z,17.19
2018-11-21T13:10:17.040Z,17.15
2018-11-21T13:13:05.062Z,17.17
2018-11-21T13:15:54.401Z,17.18
2018-11-21T13:18:42.351Z,17.21
2018-11-21T13:21:30.315Z,17.20
2018-11-21T13:24:18.417Z,17.21
2018-11-21T13:27:06.557Z,17.21
2018-11-21T13:29:54.625Z,17.24
2018-11-21T13:33:01.883Z,17.19
2018-11-21T13:35:50.060Z,17.16
2018-11-21T13:38:38.633Z,17.18
2018-11-21T13:41:26.407Z,17.14
2018-11-21T13:44:14.734Z,17.18
